sensor_id;sensor_type;location;lat;lon;timestamp;pressure;altitude;pressure_sealevel;temperature;humidity
56074;BME280;41950;55.840;37.442;2023-03-13T00:02:12;98145.59;;;-4.90;83.24
56074;BME280;41950;55.840;37.442;2023-03-13T00:04:37;98252.69;;;-4.47;83.71
56074;BME280;41950;55.840;37.442;2023-03-13T00:07:03;98249.25;;;-4.51;83.32
56074;BME280;41950;55.840;37.442;2023-03-13T00:09:29;98212.47;;;-4.77;83.11
56074;BME280;41950;55.840;37.442;2023-03-13T00:11:55;98249.25;;;-4.51;83.26
56074;BME280;41950;55.840;37.442;2023-03-13T00:14:21;98221.84;;;-4.72;82.85
56074;BME280;41950;55.840;37.442;2023-03-13T00:16:46;98237.22;;;-4.62;82.95
56074;BME280;41950;55.840;37.442;2023-03-13T00:19:12;98208.25;;;-4.77;83.03
56074;BME280;41950;55.840;37.442;2023-03-13T00:21:39;98257.66;;;-4.53;83.03
56074;BME280;41950;55.840;37.442;2023-03-13T00:24:10;98261.00;;;-4.54;83.17
56074;BME280;41950;55.840;37.442;2023-03-13T00:26:35;98271.94;;;-4.57;82.33
56074;BME280;41950;55.840;37.442;2023-03-13T00:29:01;98236.09;;;-4.77;82.43
56074;BME280;41950;55.840;37.442;2023-03-13T00:31:29;98272.78;;;-4.56;82.37
56074;BME280;41950;55.840;37.442;2023-03-13T00:34:00;98270.34;;;-4.52;82.27
56074;BME280;41950;55.840;37.442;2023-03-13T00:36:28;98284.72;;;-4.49;81.88
56074;BME280;41950;55.840;37.442;2023-03-13T00:38:55;98276.25;;;-4.51;81.88
56074;BME280;41950;55.840;37.442;2023-03-13T00:41:23;98267.88;;;-4.47;81.63
56074;BME280;41950;55.840;37.442;2023-03-13T00:43:50;98263.63;;;-4.50;81.83
56074;BME280;41950;55.840;37.442;2023-03-13T00:46:18;98283.97;;;-4.45;80.93
56074;BME280;41950;55.840;37.442;2023-03-13T00:48:44;98288.19;;;-4.44;81.78
56074;BME280;41950;55.840;37.442;2023-03-13T00:51:11;98292.44;;;-4.43;81.25
56074;BME280;41950;55.840;37.442;2023-03-13T00:53:37;98280.41;;;-4.55;81.34
56074;BME280;41950;55.840;37.442;2023-03-13T00:56:06;98296.41;;;-4.56;80.53
56074;BME280;41950;55.840;37.442;2023-03-13T00:58:34;98317.56;;;-4.54;81.02
56074;BME280;41950;55.840;37.442;2023-03-13T01:03:39;98323.28;;;-4.62;81.46
56074;BME280;41950;55.840;37.442;2023-03-13T01:06:09;98300.81;;;-4.88;80.52
56074;BME280;41950;55.840;37.442;2023-03-13T01:08:35;98307.34;;;-4.98;80.71
56074;BME280;41950;55.840;37.442;2023-03-13T01:11:06;98337.84;;;-4.91;80.70
56074;BME280;41950;55.840;37.442;2023-03-13T01:13:32;98347.16;;;-4.90;82.21
56074;BME280;41950;55.840;37.442;2023-03-13T01:16:06;98346.28;;;-4.92;82.58
56074;BME280;41950;55.840;37.442;2023-03-13T01:18:34;98355.38;;;-4.99;82.36
56074;BME280;41950;55.840;37.442;2023-03-13T01:21:00;98328.78;;;-5.19;83.43
56074;BME280;41950;55.840;37.442;2023-03-13T01:23:26;98360.25;;;-5.07;82.80
56074;BME280;41950;55.840;37.442;2023-03-13T01:25:54;98374.53;;;-5.10;82.69
56074;BME280;41950;55.840;37.442;2023-03-13T01:28:20;98368.53;;;-5.14;82.02
56074;BME280;41950;55.840;37.442;2023-03-13T01:30:46;98378.63;;;-5.15;82.50
56074;BME280;41950;55.840;37.442;2023-03-13T01:33:12;98375.16;;;-5.19;82.21
56074;BME280;41950;55.840;37.442;2023-03-13T01:35:37;98389.53;;;-5.18;82.88
56074;BME280;41950;55.840;37.442;2023-03-13T01:38:03;98379.19;;;-5.25;82.46
56074;BME280;41950;55.840;37.442;2023-03-13T01:40:29;98400.47;;;-5.19;83.45
56074;BME280;41950;55.840;37.442;2023-03-13T01:42:57;98390.31;;;-5.20;83.82
56074;BME280;41950;55.840;37.442;2023-03-13T01:48:14;98413.59;;;-5.32;84.16
56074;BME280;41950;55.840;37.442;2023-03-13T01:50:39;98403.19;;;-5.44;84.11
56074;BME280;41950;55.840;37.442;2023-03-13T01:53:05;98429.47;;;-5.38;84.83
56074;BME280;41950;55.840;37.442;2023-03-13T01:55:31;98412.28;;;-5.51;84.88
56074;BME280;41950;55.840;37.442;2023-03-13T01:57:58;98411.31;;;-5.56;84.56
56074;BME280;41950;55.840;37.442;2023-03-13T02:00:30;98442.84;;;-5.43;84.77
56074;BME280;41950;55.840;37.442;2023-03-13T02:03:02;98443.47;;;-5.50;84.57
56074;BME280;41950;55.840;37.442;2023-03-13T02:05:30;98472.94;;;-5.51;84.66
56074;BME280;41950;55.840;37.442;2023-03-13T02:08:07;98453.47;;;-5.55;84.33
56074;BME280;41950;55.840;37.442;2023-03-13T02:10:41;98416.31;;;-5.90;84.88
56074;BME280;41950;55.840;37.442;2023-03-13T02:13:10;98448.78;;;-5.73;84.97
56074;BME280;41950;55.840;37.442;2023-03-13T02:15:40;98423.09;;;-5.88;85.34
56074;BME280;41950;55.840;37.442;2023-03-13T02:18:06;98475.00;;;-5.69;85.26
56074;BME280;41950;55.840;37.442;2023-03-13T02:20:32;98463.72;;;-5.80;85.21
56074;BME280;41950;55.840;37.442;2023-03-13T02:25:45;98490.91;;;-5.73;84.86
56074;BME280;41950;55.840;37.442;2023-03-13T02:30:41;98496.56;;;-5.80;84.38
56074;BME280;41950;55.840;37.442;2023-03-13T02:33:07;98504.97;;;-5.81;85.16
56074;BME280;41950;55.840;37.442;2023-03-13T02:35:34;98517.56;;;-5.83;85.43
56074;BME280;41950;55.840;37.442;2023-03-13T02:38:04;98515.72;;;-5.88;85.70
56074;BME280;41950;55.840;37.442;2023-03-13T02:40:35;98524.13;;;-5.89;85.88
56074;BME280;41950;55.840;37.442;2023-03-13T02:43:11;98523.28;;;-5.90;86.25
56074;BME280;41950;55.840;37.442;2023-03-13T02:45:40;98489.78;;;-6.13;86.45
56074;BME280;41950;55.840;37.442;2023-03-13T02:48:05;98512.72;;;-6.05;86.57
56074;BME280;41950;55.840;37.442;2023-03-13T02:50:31;98469.78;;;-6.34;86.01
56074;BME280;41950;55.840;37.442;2023-03-13T02:53:02;98519.34;;;-6.09;86.03
56074;BME280;41950;55.840;37.442;2023-03-13T02:55:32;98490.03;;;-6.32;86.55
56074;BME280;41950;55.840;37.442;2023-03-13T02:57:59;98527.75;;;-6.10;85.92
56074;BME280;41950;55.840;37.442;2023-03-13T03:00:24;98525.94;;;-6.14;85.50
56074;BME280;41950;55.840;37.442;2023-03-13T03:02:52;98540.19;;;-6.16;85.51
56074;BME280;41950;55.840;37.442;2023-03-13T03:05:19;98540.19;;;-6.16;86.21
56074;BME280;41950;55.840;37.442;2023-03-13T03:07:44;98555.59;;;-6.07;85.96
56074;BME280;41950;55.840;37.442;2023-03-13T03:10:10;98563.91;;;-6.11;86.26
56074;BME280;41950;55.840;37.442;2023-03-13T03:12:36;98522.66;;;-6.38;85.68
56074;BME280;41950;55.840;37.442;2023-03-13T03:15:02;98552.69;;;-6.20;86.16
56074;BME280;41950;55.840;37.442;2023-03-13T03:17:29;98575.53;;;-6.16;86.89
56074;BME280;41950;55.840;37.442;2023-03-13T03:19:55;98580.56;;;-6.17;86.23
56074;BME280;41950;55.840;37.442;2023-03-13T03:22:21;98543.53;;;-6.44;86.43
56074;BME280;41950;55.840;37.442;2023-03-13T03:24:47;98567.38;;;-6.34;86.88
56074;BME280;41950;55.840;37.442;2023-03-13T03:27:12;98567.25;;;-6.39;86.66
56074;BME280;41950;55.840;37.442;2023-03-13T03:29:38;98586.88;;;-6.30;86.63
56074;BME280;41950;55.840;37.442;2023-03-13T03:32:04;98569.50;;;-6.48;86.96
56074;BME280;41950;55.840;37.442;2023-03-13T03:34:30;98589.25;;;-6.35;87.39
56074;BME280;41950;55.840;37.442;2023-03-13T03:36:56;98584.00;;;-6.41;87.32
56074;BME280;41950;55.840;37.442;2023-03-13T03:39:22;98567.63;;;-6.53;87.47
56074;BME280;41950;55.840;37.442;2023-03-13T03:41:48;98606.97;;;-6.33;86.68
56074;BME280;41950;55.840;37.442;2023-03-13T03:44:13;98613.63;;;-6.35;86.89
56074;BME280;41950;55.840;37.442;2023-03-13T03:46:39;98618.53;;;-6.40;86.53
56074;BME280;41950;55.840;37.442;2023-03-13T03:49:05;98623.44;;;-6.44;86.64
56074;BME280;41950;55.840;37.442;2023-03-13T03:51:30;98620.97;;;-6.43;86.75
56074;BME280;41950;55.840;37.442;2023-03-13T03:53:56;98619.25;;;-6.44;86.71
56074;BME280;41950;55.840;37.442;2023-03-13T03:56:22;98638.59;;;-6.44;86.34
56074;BME280;41950;55.840;37.442;2023-03-13T03:58:47;98637.78;;;-6.43;86.19
56074;BME280;41950;55.840;37.442;2023-03-13T04:01:13;98611.94;;;-6.62;86.30
56074;BME280;41950;55.840;37.442;2023-03-13T04:03:39;98638.50;;;-6.47;85.80
56074;BME280;41950;55.840;37.442;2023-03-13T04:06:05;98590.34;;;-6.79;85.86
56074;BME280;41950;55.840;37.442;2023-03-13T04:08:31;98617.63;;;-6.67;86.10
56074;BME280;41950;55.840;37.442;2023-03-13T04:10:59;98651.13;;;-6.47;85.55
56074;BME280;41950;55.840;37.442;2023-03-13T04:13:26;98652.72;;;-6.49;85.80
56074;BME280;41950;55.840;37.442;2023-03-13T04:15:51;98653.75;;;-6.44;85.54
56074;BME280;41950;55.840;37.442;2023-03-13T04:18:17;98634.75;;;-6.59;85.13
56074;BME280;41950;55.840;37.442;2023-03-13T04:20:42;98644.97;;;-6.56;85.08
56074;BME280;41950;55.840;37.442;2023-03-13T04:23:08;98678.31;;;-6.39;85.62
56074;BME280;41950;55.840;37.442;2023-03-13T04:25:34;98674.91;;;-6.41;84.91
56074;BME280;41950;55.840;37.442;2023-03-13T04:28:00;98653.53;;;-6.50;84.65
56074;BME280;41950;55.840;37.442;2023-03-13T04:30:26;98683.41;;;-6.37;84.72
56074;BME280;41950;55.840;37.442;2023-03-13T04:32:51;98688.53;;;-6.36;84.50
56074;BME280;41950;55.840;37.442;2023-03-13T04:35:17;98685.09;;;-6.38;84.59
56074;BME280;41950;55.840;37.442;2023-03-13T04:37:43;98678.31;;;-6.39;85.15
56074;BME280;41950;55.840;37.442;2023-03-13T04:40:09;98696.31;;;-6.30;84.49
56074;BME280;41950;55.840;37.442;2023-03-13T04:42:36;98695.56;;;-6.27;84.38
56074;BME280;41950;55.840;37.442;2023-03-13T04:45:02;98706.66;;;-6.22;84.66
56074;BME280;41950;55.840;37.442;2023-03-13T04:47:29;98718.47;;;-6.21;84.09
56074;BME280;41950;55.840;37.442;2023-03-13T04:49:54;98713.47;;;-6.19;84.21
56074;BME280;41950;55.840;37.442;2023-03-13T04:52:20;98720.19;;;-6.20;83.61
56074;BME280;41950;55.840;37.442;2023-03-13T04:54:46;98722.16;;;-6.11;84.28
56074;BME280;41950;55.840;37.442;2023-03-13T04:57:12;98715.09;;;-6.21;82.63
56074;BME280;41950;55.840;37.442;2023-03-13T04:59:37;98720.59;;;-6.08;83.07
56074;BME280;41950;55.840;37.442;2023-03-13T05:02:03;98698.09;;;-6.27;82.81
56074;BME280;41950;55.840;37.442;2023-03-13T05:04:29;98747.88;;;-5.98;82.81
56074;BME280;41950;55.840;37.442;2023-03-13T05:06:54;98728.97;;;-6.09;83.19
56074;BME280;41950;55.840;37.442;2023-03-13T05:09:20;98722.31;;;-6.07;83.36
56074;BME280;41950;55.840;37.442;2023-03-13T05:11:45;98749.16;;;-5.83;83.28
56074;BME280;41950;55.840;37.442;2023-03-13T05:14:11;98730.47;;;-5.88;81.94
56074;BME280;41950;55.840;37.442;2023-03-13T05:16:37;98761.53;;;-5.66;81.75
56074;BME280;41950;55.840;37.442;2023-03-13T05:19:03;98721.72;;;-5.73;80.67
56074;BME280;41950;55.840;37.442;2023-03-13T05:21:29;98766.41;;;-5.45;80.50
56074;BME280;41950;55.840;37.442;2023-03-13T05:23:54;98776.47;;;-5.46;80.31
56074;BME280;41950;55.840;37.442;2023-03-13T05:26:20;98752.41;;;-5.61;79.59
56074;BME280;41950;55.840;37.442;2023-03-13T05:28:47;98768.66;;;-5.52;80.32
56074;BME280;41950;55.840;37.442;2023-03-13T05:31:12;98783.38;;;-5.41;80.63
56074;BME280;41950;55.840;37.442;2023-03-13T05:33:38;98774.91;;;-5.43;80.86
56074;BME280;41950;55.840;37.442;2023-03-13T05:36:07;98769.84;;;-5.43;80.96
56074;BME280;41950;55.840;37.442;2023-03-13T05:38:32;98799.22;;;-5.19;81.09
56074;BME280;41950;55.840;37.442;2023-03-13T05:40:58;98799.22;;;-5.19;79.76
56074;BME280;41950;55.840;37.442;2023-03-13T05:43:24;98789.94;;;-5.20;80.61
56074;BME280;41950;55.840;37.442;2023-03-13T05:45:49;98801.91;;;-5.15;80.53
56074;BME280;41950;55.840;37.442;2023-03-13T05:48:15;98768.63;;;-5.27;80.45
56074;BME280;41950;55.840;37.442;2023-03-13T05:50:41;98789.41;;;-5.09;80.48
56074;BME280;41950;55.840;37.442;2023-03-13T05:53:06;98796.41;;;-5.00;79.13
56074;BME280;41950;55.840;37.442;2023-03-13T05:55:32;98810.19;;;-4.92;79.22
56074;BME280;41950;55.840;37.442;2023-03-13T05:57:57;98801.94;;;-4.85;79.29
56074;BME280;41950;55.840;37.442;2023-03-13T06:00:23;98752.38;;;-5.07;79.62
56074;BME280;41950;55.840;37.442;2023-03-13T06:02:49;98809.75;;;-4.77;79.05
56074;BME280;41950;55.840;37.442;2023-03-13T06:05:15;98784.03;;;-4.92;78.44
56074;BME280;41950;55.840;37.442;2023-03-13T06:07:40;98804.00;;;-4.72;78.40
56074;BME280;41950;55.840;37.442;2023-03-13T06:10:06;98659.94;;;-5.54;77.95
56074;BME280;41950;55.840;37.442;2023-03-13T06:12:32;98825.63;;;-4.54;77.78
56074;BME280;41950;55.840;37.442;2023-03-13T06:14:57;98827.34;;;-4.53;77.41
56074;BME280;41950;55.840;37.442;2023-03-13T06:17:23;98834.38;;;-4.43;77.87
56074;BME280;41950;55.840;37.442;2023-03-13T06:19:50;98828.47;;;-4.42;77.76
56074;BME280;41950;55.840;37.442;2023-03-13T06:22:16;98821.94;;;-4.36;77.55
56074;BME280;41950;55.840;37.442;2023-03-13T06:24:41;98849.41;;;-4.19;77.08
56074;BME280;41950;55.840;37.442;2023-03-13T06:27:09;98848.63;;;-4.17;77.23
56074;BME280;41950;55.840;37.442;2023-03-13T06:29:34;98840.16;;;-4.17;76.32
56074;BME280;41950;55.840;37.442;2023-03-13T06:32:00;98839.38;;;-4.15;75.79
56074;BME280;41950;55.840;37.442;2023-03-13T06:34:25;98849.53;;;-4.15;74.86
56074;BME280;41950;55.840;37.442;2023-03-13T06:36:51;98859.69;;;-4.13;75.58
56074;BME280;41950;55.840;37.442;2023-03-13T06:39:17;98816.91;;;-4.34;74.84
56074;BME280;41950;55.840;37.442;2023-03-13T06:41:42;98841.91;;;-4.15;74.36
56074;BME280;41950;55.840;37.442;2023-03-13T06:44:08;98866.31;;;-3.87;74.54
56074;BME280;41950;55.840;37.442;2023-03-13T06:46:34;98872.28;;;-3.55;73.26
56074;BME280;41950;55.840;37.442;2023-03-13T06:48:59;98870.03;;;-3.43;72.83
56074;BME280;41950;55.840;37.442;2023-03-13T06:51:28;98843.69;;;-3.48;72.51
56074;BME280;41950;55.840;37.442;2023-03-13T06:53:54;98872.00;;;-3.31;71.59
56074;BME280;41950;55.840;37.442;2023-03-13T06:56:20;98843.06;;;-3.39;71.73
56074;BME280;41950;55.840;37.442;2023-03-13T06:58:47;98884.34;;;-3.10;71.38
56074;BME280;41950;55.840;37.442;2023-03-13T07:01:14;98886.13;;;-3.06;72.23
56074;BME280;41950;55.840;37.442;2023-03-13T07:03:41;98885.22;;;-3.09;70.77
56074;BME280;41950;55.840;37.442;2023-03-13T07:06:07;98889.44;;;-3.10;70.99
56074;BME280;41950;55.840;37.442;2023-03-13T07:08:35;98897.97;;;-3.06;71.45
56074;BME280;41950;55.840;37.442;2023-03-13T07:11:03;98896.66;;;-2.91;70.62
56074;BME280;41950;55.840;37.442;2023-03-13T07:13:29;98884.22;;;-2.80;71.52
56074;BME280;41950;55.840;37.442;2023-03-13T07:15:59;98901.53;;;-2.64;69.35
56074;BME280;41950;55.840;37.442;2023-03-13T07:18:25;98870.63;;;-2.82;69.77
56074;BME280;41950;55.840;37.442;2023-03-13T07:20:55;98912.56;;;-2.62;69.61
56074;BME280;41950;55.840;37.442;2023-03-13T07:23:22;98893.94;;;-2.62;69.84
56074;BME280;41950;55.840;37.442;2023-03-13T07:25:53;98918.78;;;-2.49;68.94
56074;BME280;41950;55.840;37.442;2023-03-13T07:28:19;98901.88;;;-2.85;68.42
56074;BME280;41950;55.840;37.442;2023-03-13T07:30:45;98926.53;;;-2.81;69.76
56074;BME280;41950;55.840;37.442;2023-03-13T07:33:10;98932.25;;;-2.89;69.07
56074;BME280;41950;55.840;37.442;2023-03-13T07:35:36;98935.25;;;-3.04;69.78
56074;BME280;41950;55.840;37.442;2023-03-13T07:38:01;98948.31;;;-2.90;69.42
56074;BME280;41950;55.840;37.442;2023-03-13T07:40:27;98939.88;;;-2.89;69.35
56074;BME280;41950;55.840;37.442;2023-03-13T07:42:53;98942.34;;;-2.92;68.42
56074;BME280;41950;55.840;37.442;2023-03-13T07:45:18;98959.63;;;-2.76;69.44
56074;BME280;41950;55.840;37.442;2023-03-13T07:47:44;98918.06;;;-2.80;68.52
56074;BME280;41950;55.840;37.442;2023-03-13T07:50:10;98951.72;;;-2.52;68.77
56074;BME280;41950;55.840;37.442;2023-03-13T07:52:35;98962.81;;;-2.49;68.89
56074;BME280;41950;55.840;37.442;2023-03-13T07:55:01;98953.75;;;-2.39;68.82
56074;BME280;41950;55.840;37.442;2023-03-13T07:57:29;98925.28;;;-2.23;68.97
56074;BME280;41950;55.840;37.442;2023-03-13T07:59:55;98952.28;;;-1.89;68.51
56074;BME280;41950;55.840;37.442;2023-03-13T08:02:21;98964.88;;;-1.93;69.05
56074;BME280;41950;55.840;37.442;2023-03-13T08:04:46;98954.34;;;-2.11;69.68
56074;BME280;41950;55.840;37.442;2023-03-13T08:07:15;98961.97;;;-2.11;70.09
56074;BME280;41950;55.840;37.442;2023-03-13T08:09:41;98959.31;;;-2.17;69.90
56074;BME280;41950;55.840;37.442;2023-03-13T08:12:07;98962.50;;;-2.26;69.92
56074;BME280;41950;55.840;37.442;2023-03-13T08:14:33;98963.41;;;-2.23;70.47
56074;BME280;41950;55.840;37.442;2023-03-13T08:16:58;98942.13;;;-2.28;71.26
56074;BME280;41950;55.840;37.442;2023-03-13T08:19:25;98958.88;;;-1.97;71.14
56074;BME280;41950;55.840;37.442;2023-03-13T08:21:51;98952.94;;;-1.97;70.03
56074;BME280;41950;55.840;37.442;2023-03-13T08:24:17;98970.81;;;-1.93;70.17
56074;BME280;41950;55.840;37.442;2023-03-13T08:26:42;98963.25;;;-1.91;69.95
56074;BME280;41950;55.840;37.442;2023-03-13T08:29:11;98946.41;;;-1.86;69.05
56074;BME280;41950;55.840;37.442;2023-03-13T08:31:48;98934.53;;;-1.85;67.65
56074;BME280;41950;55.840;37.442;2023-03-13T08:34:15;98976.25;;;-1.35;67.53
56074;BME280;41950;55.840;37.442;2023-03-13T08:36:41;98985.38;;;-1.00;66.70
56074;BME280;41950;55.840;37.442;2023-03-13T08:39:12;98988.69;;;-1.04;65.86
56074;BME280;41950;55.840;37.442;2023-03-13T08:41:38;98974.09;;;-1.12;65.87
56074;BME280;41950;55.840;37.442;2023-03-13T08:44:06;98982.13;;;-0.89;65.87
56074;BME280;41950;55.840;37.442;2023-03-13T08:46:34;99001.53;;;-0.98;65.52
56074;BME280;41950;55.840;37.442;2023-03-13T08:49:03;98995.25;;;-1.16;66.58
56074;BME280;41950;55.840;37.442;2023-03-13T08:51:29;98990.09;;;-1.19;66.42
56074;BME280;41950;55.840;37.442;2023-03-13T08:53:56;99005.53;;;-1.10;66.97
56074;BME280;41950;55.840;37.442;2023-03-13T08:56:24;98994.91;;;-0.86;67.77
56074;BME280;41950;55.840;37.442;2023-03-13T08:58:51;99001.91;;;-0.76;65.26
56074;BME280;41950;55.840;37.442;2023-03-13T09:01:19;98984.50;;;-1.02;65.82
56074;BME280;41950;55.840;37.442;2023-03-13T09:03:45;99021.13;;;-0.94;66.93
56074;BME280;41950;55.840;37.442;2023-03-13T09:06:11;99017.84;;;-0.86;66.99
56074;BME280;41950;55.840;37.442;2023-03-13T09:08:38;99019.00;;;-0.69;67.45
56074;BME280;41950;55.840;37.442;2023-03-13T09:11:09;99026.16;;;-0.48;65.32
56074;BME280;41950;55.840;37.442;2023-03-13T09:13:39;99019.56;;;-0.34;65.51
56074;BME280;41950;55.840;37.442;2023-03-13T09:16:10;99005.06;;;-0.38;64.76
56074;BME280;41950;55.840;37.442;2023-03-13T09:18:37;99009.88;;;-0.55;65.57
56074;BME280;41950;55.840;37.442;2023-03-13T09:21:06;99034.31;;;-0.68;67.61
56074;BME280;41950;55.840;37.442;2023-03-13T09:23:32;99023.81;;;-0.86;68.45
56074;BME280;41950;55.840;37.442;2023-03-13T09:25:58;99044.47;;;-0.71;69.93
56074;BME280;41950;55.840;37.442;2023-03-13T09:28:25;99047.19;;;-0.60;70.20
56074;BME280;41950;55.840;37.442;2023-03-13T09:30:51;99030.22;;;-0.58;70.62
56074;BME280;41950;55.840;37.442;2023-03-13T09:33:19;99051.09;;;-0.29;70.67
56074;BME280;41950;55.840;37.442;2023-03-13T09:35:45;99043.97;;;-0.50;70.98
56074;BME280;41950;55.840;37.442;2023-03-13T09:38:19;99057.56;;;-0.51;72.17
56074;BME280;41950;55.840;37.442;2023-03-13T09:40:50;99065.69;;;-0.70;72.65
56074;BME280;41950;55.840;37.442;2023-03-13T09:43:33;99048.34;;;-0.91;73.21
56074;BME280;41950;55.840;37.442;2023-03-13T09:46:05;99064.91;;;-0.66;74.21
56074;BME280;41950;55.840;37.442;2023-03-13T09:48:38;99073.84;;;-0.41;73.56
56074;BME280;41950;55.840;37.442;2023-03-13T09:51:20;99059.22;;;-0.53;72.24
56074;BME280;41950;55.840;37.442;2023-03-13T09:53:52;99083.75;;;-0.58;72.02
56074;BME280;41950;55.840;37.442;2023-03-13T09:56:33;99075.50;;;-0.91;71.84
56074;BME280;41950;55.840;37.442;2023-03-13T09:59:10;99051.34;;;-1.12;73.31
56074;BME280;41950;55.840;37.442;2023-03-13T10:01:39;99069.41;;;-1.00;72.68
56074;BME280;41950;55.840;37.442;2023-03-13T10:04:20;99084.22;;;-0.80;72.61
56074;BME280;41950;55.840;37.442;2023-03-13T10:06:50;99060.38;;;-0.82;71.12
56074;BME280;41950;55.840;37.442;2023-03-13T10:09:18;99089.41;;;-0.76;70.42
56074;BME280;41950;55.840;37.442;2023-03-13T10:12:24;99085.91;;;-0.81;70.61
56074;BME280;41950;55.840;37.442;2023-03-13T10:15:31;99095.72;;;-1.01;70.13
56074;BME280;41950;55.840;37.442;2023-03-13T10:17:59;99075.59;;;-1.31;71.55
56074;BME280;41950;55.840;37.442;2023-03-13T10:20:34;99099.31;;;-0.89;72.02
56074;BME280;41950;55.840;37.442;2023-03-13T10:23:05;99059.25;;;-0.98;70.54
56074;BME280;41950;55.840;37.442;2023-03-13T10:25:34;99112.94;;;-0.87;69.93
56074;BME280;41950;55.840;37.442;2023-03-13T10:28:03;99119.19;;;-1.14;69.77
56074;BME280;41950;55.840;37.442;2023-03-13T10:30:30;99131.66;;;-1.28;71.85
56074;BME280;41950;55.840;37.442;2023-03-13T10:35:39;99129.44;;;-1.11;71.60
56074;BME280;41950;55.840;37.442;2023-03-13T10:38:14;99131.22;;;-1.08;71.79
56074;BME280;41950;55.840;37.442;2023-03-13T10:40:42;99131.16;;;-1.10;71.48
56074;BME280;41950;55.840;37.442;2023-03-13T10:43:19;99113.22;;;-1.16;70.97
56074;BME280;41950;55.840;37.442;2023-03-13T10:45:45;99120.34;;;-1.00;71.13
56074;BME280;41950;55.840;37.442;2023-03-13T10:48:13;99137.06;;;-0.69;70.99
56074;BME280;41950;55.840;37.442;2023-03-13T10:50:44;99154.06;;;-0.69;70.25
56074;BME280;41950;55.840;37.442;2023-03-13T10:56:02;99154.13;;;-1.08;71.31
56074;BME280;41950;55.840;37.442;2023-03-13T11:01:26;99156.72;;;-1.07;72.86
56074;BME280;41950;55.840;37.442;2023-03-13T11:03:54;99161.34;;;-1.28;73.93
56074;BME280;41950;55.840;37.442;2023-03-13T11:06:27;99169.56;;;-1.40;75.21
56074;BME280;41950;55.840;37.442;2023-03-13T11:09:12;99177.03;;;-1.47;75.56
56074;BME280;41950;55.840;37.442;2023-03-13T11:12:04;99179.31;;;-1.60;77.42
56074;BME280;41950;55.840;37.442;2023-03-13T11:14:30;99171.44;;;-1.69;78.65
56074;BME280;41950;55.840;37.442;2023-03-13T11:17:03;99203.03;;;-1.61;80.41
56074;BME280;41950;55.840;37.442;2023-03-13T11:19:38;99204.56;;;-1.67;81.92
56074;BME280;41950;55.840;37.442;2023-03-13T11:22:52;99204.06;;;-1.89;81.63
56074;BME280;41950;55.840;37.442;2023-03-13T11:36:11;99210.00;;;-1.14;80.23
56074;BME280;41950;55.840;37.442;2023-03-13T11:38:40;99224.34;;;-1.19;78.45
56074;BME280;41950;55.840;37.442;2023-03-13T11:52:27;99236.06;;;-1.26;78.93
56074;BME280;41950;55.840;37.442;2023-03-13T11:55:12;99242.00;;;-1.27;78.71
56074;BME280;41950;55.840;37.442;2023-03-13T12:00:43;99237.25;;;-1.10;76.84
56074;BME280;41950;55.840;37.442;2023-03-13T12:03:16;99251.19;;;-0.95;76.63
56074;BME280;41950;55.840;37.442;2023-03-13T12:05:52;99252.03;;;-0.96;75.80
56074;BME280;41950;55.840;37.442;2023-03-13T12:14:12;99253.50;;;-1.07;75.18
56074;BME280;41950;55.840;37.442;2023-03-13T12:16:44;99260.50;;;-0.97;73.89
56074;BME280;41950;55.840;37.442;2023-03-13T12:19:19;99228.94;;;-1.03;73.45
56074;BME280;41950;55.840;37.442;2023-03-13T12:21:52;99260.00;;;-0.80;71.74
56074;BME280;41950;55.840;37.442;2023-03-13T12:24:24;99258.47;;;-0.72;71.52
56074;BME280;41950;55.840;37.442;2023-03-13T12:26:59;99258.22;;;-0.83;70.68
56074;BME280;41950;55.840;37.442;2023-03-13T12:32:21;99257.81;;;-0.20;70.63
56074;BME280;41950;55.840;37.442;2023-03-13T12:34:59;99279.41;;;0.47;67.01
56074;BME280;41950;55.840;37.442;2023-03-13T12:37:43;99264.09;;;-0.01;62.87
56074;BME280;41950;55.840;37.442;2023-03-13T12:40:18;99266.63;;;-0.48;62.94
56074;BME280;41950;55.840;37.442;2023-03-13T12:43:25;99269.19;;;-0.01;64.30
56074;BME280;41950;55.840;37.442;2023-03-13T12:49:05;99272.88;;;-0.32;63.81
56074;BME280;41950;55.840;37.442;2023-03-13T12:59:58;99279.28;;;-0.07;62.32
56074;BME280;41950;55.840;37.442;2023-03-13T13:02:30;99291.88;;;-0.16;61.47
56074;BME280;41950;55.840;37.442;2023-03-13T13:04:59;99287.00;;;-0.48;61.09
56074;BME280;41950;55.840;37.442;2023-03-13T13:07:51;99273.75;;;-0.72;61.23
56074;BME280;41950;55.840;37.442;2023-03-13T13:10:23;99299.25;;;-0.72;60.27
56074;BME280;41950;55.840;37.442;2023-03-13T13:15:48;99301.72;;;-0.75;60.42
56074;BME280;41950;55.840;37.442;2023-03-13T13:18:29;99306.72;;;-0.80;61.05
56074;BME280;41950;55.840;37.442;2023-03-13T13:28:58;99305.19;;;-0.72;61.07
56074;BME280;41950;55.840;37.442;2023-03-13T13:36:54;99297.88;;;-0.56;63.00
56074;BME280;41950;55.840;37.442;2023-03-13T13:39:43;99305.50;;;-0.16;61.53
56074;BME280;41950;55.840;37.442;2023-03-13T13:42:50;99308.66;;;-0.27;60.59
56074;BME280;41950;55.840;37.442;2023-03-13T13:47:48;99310.31;;;-0.70;62.95
56074;BME280;41950;55.840;37.442;2023-03-13T13:50:19;99324.81;;;-0.68;63.38
56074;BME280;41950;55.840;37.442;2023-03-13T13:52:46;99329.06;;;-0.68;62.66
56074;BME280;41950;55.840;37.442;2023-03-13T13:57:48;99327.22;;;-1.11;62.48
56074;BME280;41950;55.840;37.442;2023-03-13T14:00:20;99302.91;;;-1.35;63.23
56074;BME280;41950;55.840;37.442;2023-03-13T14:02:55;99317.81;;;-1.14;63.64
56074;BME280;41950;55.840;37.442;2023-03-13T14:08:07;99333.84;;;-1.18;62.92
56074;BME280;41950;55.840;37.442;2023-03-13T14:10:41;99324.34;;;-1.25;62.80
56074;BME280;41950;55.840;37.442;2023-03-13T14:13:25;99326.00;;;-1.27;63.12
56074;BME280;41950;55.840;37.442;2023-03-13T14:15:52;99328.47;;;-1.30;63.77
56074;BME280;41950;55.840;37.442;2023-03-13T14:18:29;99327.50;;;-1.35;64.52
56074;BME280;41950;55.840;37.442;2023-03-13T14:23:36;99337.75;;;-1.32;64.55
56074;BME280;41950;55.840;37.442;2023-03-13T14:26:12;99341.16;;;-1.32;65.05
56074;BME280;41950;55.840;37.442;2023-03-13T14:28:57;99343.50;;;-1.39;64.03
56074;BME280;41950;55.840;37.442;2023-03-13T14:31:28;99342.38;;;-1.50;64.78